sensor_id;sensor_type;location;lat;lon;timestamp;P1;durP1;ratioP1;P2;durP2;ratioP2
21010;SDS011;10663;42.714;23.274;2022-10-16T00:00:52;9.52;;;7.80;;
21010;SDS011;10663;42.714;23.274;2022-10-16T00:02:23;11.13;;;7.90;;
21010;SDS011;10663;42.714;23.274;2022-10-16T00:03:54;10.23;;;8.10;;
21010;SDS011;10663;42.714;23.274;2022-10-16T00:05:26;11.25;;;8.10;;
21010;SDS011;10663;42.714;23.274;2022-10-16T00:06:58;10.10;;;8.20;;
21010;SDS011;10663;42.714;23.274;2022-10-16T00:08:28;10.93;;;8.23;;
21010;SDS011;10663;42.714;23.274;2022-10-16T00:10:00;11.07;;;8.27;;
21010;SDS011;10663;42.714;23.274;2022-10-16T00:11:32;10.35;;;8.68;;
21010;SDS011;10663;42.714;23.274;2022-10-16T00:13:07;12.00;;;8.52;;
21010;SDS011;10663;42.714;23.274;2022-10-16T00:14:38;9.63;;;7.68;;
21010;SDS011;10663;42.714;23.274;2022-10-16T00:16:12;10.20;;;8.38;;
21010;SDS011;10663;42.714;23.274;2022-10-16T00:17:44;12.65;;;8.40;;
21010;SDS011;10663;42.714;23.274;2022-10-16T00:19:15;11.50;;;8.68;;
21010;SDS011;10663;42.714;23.274;2022-10-16T00:20:46;10.68;;;8.20;;
21010;SDS011;10663;42.714;23.274;2022-10-16T00:22:35;11.63;;;8.20;;
21010;SDS011;10663;42.714;23.274;2022-10-16T00:24:07;12.50;;;8.57;;
21010;SDS011;10663;42.714;23.274;2022-10-16T00:25:39;9.52;;;8.10;;
21010;SDS011;10663;42.714;23.274;2022-10-16T00:27:10;11.15;;;8.20;;
21010;SDS011;10663;42.714;23.274;2022-10-16T00:28:41;12.45;;;8.88;;
21010;SDS011;10663;42.714;23.274;2022-10-16T00:30:12;13.07;;;9.17;;
21010;SDS011;10663;42.714;23.274;2022-10-16T00:31:42;11.83;;;9.13;;
21010;SDS011;10663;42.714;23.274;2022-10-16T00:33:13;13.17;;;9.53;;
21010;SDS011;10663;42.714;23.274;2022-10-16T00:34:44;12.43;;;9.10;;
21010;SDS011;10663;42.714;23.274;2022-10-16T00:36:16;12.97;;;9.63;;
21010;SDS011;10663;42.714;23.274;2022-10-16T00:37:49;13.25;;;9.45;;
21010;SDS011;10663;42.714;23.274;2022-10-16T00:39:20;11.13;;;8.77;;
21010;SDS011;10663;42.714;23.274;2022-10-16T00:40:51;13.85;;;9.98;;
21010;SDS011;10663;42.714;23.274;2022-10-16T00:42:22;12.27;;;9.57;;
21010;SDS011;10663;42.714;23.274;2022-10-16T00:43:57;12.95;;;9.40;;
21010;SDS011;10663;42.714;23.274;2022-10-16T00:45:29;12.77;;;9.27;;
21010;SDS011;10663;42.714;23.274;2022-10-16T00:47:00;12.27;;;9.38;;
21010;SDS011;10663;42.714;23.274;2022-10-16T00:48:31;12.75;;;9.07;;
21010;SDS011;10663;42.714;23.274;2022-10-16T00:52:03;13.95;;;9.32;;
21010;SDS011;10663;42.714;23.274;2022-10-16T00:53:35;13.90;;;8.93;;
21010;SDS011;10663;42.714;23.274;2022-10-16T00:55:07;12.40;;;8.85;;
21010;SDS011;10663;42.714;23.274;2022-10-16T00:56:39;12.90;;;9.50;;
21010;SDS011;10663;42.714;23.274;2022-10-16T00:58:11;12.25;;;9.20;;
21010;SDS011;10663;42.714;23.274;2022-10-16T00:59:43;14.18;;;9.50;;
21010;SDS011;10663;42.714;23.274;2022-10-16T01:01:14;13.95;;;9.45;;
21010;SDS011;10663;42.714;23.274;2022-10-16T01:02:45;12.30;;;9.15;;
21010;SDS011;10663;42.714;23.274;2022-10-16T01:04:35;12.45;;;9.23;;
21010;SDS011;10663;42.714;23.274;2022-10-16T01:08:00;10.88;;;8.60;;
21010;SDS011;10663;42.714;23.274;2022-10-16T01:09:47;10.68;;;8.73;;
21010;SDS011;10663;42.714;23.274;2022-10-16T01:13:25;11.35;;;8.70;;
21010;SDS011;10663;42.714;23.274;2022-10-16T01:16:53;11.35;;;8.63;;
21010;SDS011;10663;42.714;23.274;2022-10-16T01:18:45;11.77;;;8.63;;
21010;SDS011;10663;42.714;23.274;2022-10-16T01:22:04;12.45;;;8.60;;
21010;SDS011;10663;42.714;23.274;2022-10-16T01:25:44;12.82;;;9.50;;
21010;SDS011;10663;42.714;23.274;2022-10-16T01:27:27;14.98;;;9.80;;
21010;SDS011;10663;42.714;23.274;2022-10-16T01:31:08;13.82;;;9.70;;
21010;SDS011;10663;42.714;23.274;2022-10-16T01:32:57;12.68;;;9.80;;
21010;SDS011;10663;42.714;23.274;2022-10-16T01:34:42;14.90;;;9.85;;
21010;SDS011;10663;42.714;23.274;2022-10-16T01:36:29;14.90;;;10.48;;
21010;SDS011;10663;42.714;23.274;2022-10-16T01:38:12;16.50;;;12.18;;
21010;SDS011;10663;42.714;23.274;2022-10-16T01:39:48;13.57;;;10.70;;
21010;SDS011;10663;42.714;23.274;2022-10-16T01:41:22;17.35;;;12.20;;
21010;SDS011;10663;42.714;23.274;2022-10-16T01:43:11;14.50;;;11.02;;
21010;SDS011;10663;42.714;23.274;2022-10-16T01:44:46;16.88;;;11.82;;
21010;SDS011;10663;42.714;23.274;2022-10-16T01:46:18;16.13;;;12.30;;
21010;SDS011;10663;42.714;23.274;2022-10-16T01:47:51;15.97;;;12.20;;
21010;SDS011;10663;42.714;23.274;2022-10-16T01:49:24;16.45;;;10.57;;
21010;SDS011;10663;42.714;23.274;2022-10-16T01:51:01;13.13;;;10.35;;
21010;SDS011;10663;42.714;23.274;2022-10-16T01:52:38;12.18;;;9.65;;
21010;SDS011;10663;42.714;23.274;2022-10-16T01:54:13;15.50;;;10.63;;
21010;SDS011;10663;42.714;23.274;2022-10-16T01:55:47;13.15;;;9.95;;
21010;SDS011;10663;42.714;23.274;2022-10-16T01:57:19;13.40;;;9.25;;
21010;SDS011;10663;42.714;23.274;2022-10-16T01:58:55;15.00;;;9.95;;
21010;SDS011;10663;42.714;23.274;2022-10-16T02:00:29;12.80;;;9.38;;
21010;SDS011;10663;42.714;23.274;2022-10-16T02:02:03;12.10;;;9.32;;
21010;SDS011;10663;42.714;23.274;2022-10-16T02:03:38;12.88;;;9.75;;
21010;SDS011;10663;42.714;23.274;2022-10-16T02:05:37;14.00;;;9.93;;
21010;SDS011;10663;42.714;23.274;2022-10-16T02:07:13;11.85;;;9.75;;
21010;SDS011;10663;42.714;23.274;2022-10-16T02:08:44;13.15;;;10.10;;
21010;SDS011;10663;42.714;23.274;2022-10-16T02:10:15;15.75;;;10.23;;
21010;SDS011;10663;42.714;23.274;2022-10-16T02:11:47;12.50;;;10.40;;
21010;SDS011;10663;42.714;23.274;2022-10-16T02:13:21;15.40;;;11.70;;
21010;SDS011;10663;42.714;23.274;2022-10-16T02:15:00;14.20;;;11.18;;
21010;SDS011;10663;42.714;23.274;2022-10-16T02:16:35;15.82;;;10.70;;
21010;SDS011;10663;42.714;23.274;2022-10-16T02:18:08;15.35;;;10.98;;
21010;SDS011;10663;42.714;23.274;2022-10-16T02:19:40;16.83;;;12.07;;
21010;SDS011;10663;42.714;23.274;2022-10-16T02:22:52;17.23;;;12.15;;
21010;SDS011;10663;42.714;23.274;2022-10-16T02:26:09;15.48;;;10.70;;
21010;SDS011;10663;42.714;23.274;2022-10-16T02:28:00;13.80;;;11.40;;
21010;SDS011;10663;42.714;23.274;2022-10-16T02:29:32;16.15;;;10.95;;
21010;SDS011;10663;42.714;23.274;2022-10-16T02:31:11;13.60;;;10.93;;
21010;SDS011;10663;42.714;23.274;2022-10-16T02:32:45;15.40;;;10.80;;
21010;SDS011;10663;42.714;23.274;2022-10-16T02:34:18;14.68;;;10.23;;
21010;SDS011;10663;42.714;23.274;2022-10-16T02:35:52;13.70;;;10.50;;
21010;SDS011;10663;42.714;23.274;2022-10-16T02:37:25;14.85;;;10.55;;
21010;SDS011;10663;42.714;23.274;2022-10-16T02:38:57;14.00;;;10.30;;
21010;SDS011;10663;42.714;23.274;2022-10-16T02:40:30;12.93;;;10.02;;
21010;SDS011;10663;42.714;23.274;2022-10-16T02:42:02;12.07;;;9.95;;
21010;SDS011;10663;42.714;23.274;2022-10-16T02:43:32;11.02;;;9.30;;
21010;SDS011;10663;42.714;23.274;2022-10-16T02:45:04;14.45;;;10.40;;
21010;SDS011;10663;42.714;23.274;2022-10-16T02:46:39;15.40;;;9.75;;
21010;SDS011;10663;42.714;23.274;2022-10-16T02:48:10;13.07;;;9.88;;
21010;SDS011;10663;42.714;23.274;2022-10-16T02:49:41;13.57;;;10.15;;
21010;SDS011;10663;42.714;23.274;2022-10-16T02:51:12;12.75;;;9.98;;
21010;SDS011;10663;42.714;23.274;2022-10-16T02:52:43;12.52;;;9.40;;
21010;SDS011;10663;42.714;23.274;2022-10-16T02:54:13;14.38;;;10.00;;
21010;SDS011;10663;42.714;23.274;2022-10-16T02:55:44;13.95;;;9.52;;
21010;SDS011;10663;42.714;23.274;2022-10-16T02:57:15;10.93;;;9.07;;
21010;SDS011;10663;42.714;23.274;2022-10-16T02:58:46;11.88;;;9.23;;
21010;SDS011;10663;42.714;23.274;2022-10-16T03:00:17;12.85;;;9.48;;
21010;SDS011;10663;42.714;23.274;2022-10-16T03:01:48;12.32;;;9.73;;
21010;SDS011;10663;42.714;23.274;2022-10-16T03:03:19;12.05;;;8.90;;
21010;SDS011;10663;42.714;23.274;2022-10-16T03:04:49;13.10;;;9.05;;
21010;SDS011;10663;42.714;23.274;2022-10-16T03:06:20;11.85;;;9.02;;
21010;SDS011;10663;42.714;23.274;2022-10-16T03:07:51;12.15;;;9.02;;
21010;SDS011;10663;42.714;23.274;2022-10-16T03:09:23;11.68;;;9.10;;
21010;SDS011;10663;42.714;23.274;2022-10-16T03:10:53;10.88;;;8.55;;
21010;SDS011;10663;42.714;23.274;2022-10-16T03:12:24;12.43;;;8.90;;
21010;SDS011;10663;42.714;23.274;2022-10-16T03:13:55;16.02;;;9.20;;
21010;SDS011;10663;42.714;23.274;2022-10-16T03:15:26;12.43;;;9.15;;
21010;SDS011;10663;42.714;23.274;2022-10-16T03:16:58;13.55;;;9.10;;
21010;SDS011;10663;42.714;23.274;2022-10-16T03:18:29;12.50;;;9.18;;
21010;SDS011;10663;42.714;23.274;2022-10-16T03:20:00;11.13;;;9.07;;
21010;SDS011;10663;42.714;23.274;2022-10-16T03:21:31;11.90;;;8.98;;
21010;SDS011;10663;42.714;23.274;2022-10-16T03:23:02;12.82;;;9.02;;
21010;SDS011;10663;42.714;23.274;2022-10-16T03:24:34;13.82;;;9.32;;
21010;SDS011;10663;42.714;23.274;2022-10-16T03:26:04;12.68;;;9.02;;
21010;SDS011;10663;42.714;23.274;2022-10-16T03:27:35;12.88;;;9.60;;
21010;SDS011;10663;42.714;23.274;2022-10-16T03:29:06;12.85;;;9.02;;
21010;SDS011;10663;42.714;23.274;2022-10-16T03:30:38;12.75;;;9.45;;
21010;SDS011;10663;42.714;23.274;2022-10-16T03:32:10;13.85;;;9.63;;
21010;SDS011;10663;42.714;23.274;2022-10-16T03:33:41;13.93;;;10.00;;
21010;SDS011;10663;42.714;23.274;2022-10-16T03:35:11;12.90;;;9.85;;
21010;SDS011;10663;42.714;23.274;2022-10-16T03:36:42;11.52;;;9.15;;
21010;SDS011;10663;42.714;23.274;2022-10-16T03:38:13;12.27;;;8.90;;
21010;SDS011;10663;42.714;23.274;2022-10-16T03:39:44;15.27;;;9.48;;
21010;SDS011;10663;42.714;23.274;2022-10-16T03:41:15;13.33;;;9.40;;
21010;SDS011;10663;42.714;23.274;2022-10-16T03:42:46;12.05;;;9.05;;
21010;SDS011;10663;42.714;23.274;2022-10-16T03:44:17;13.43;;;9.60;;
21010;SDS011;10663;42.714;23.274;2022-10-16T03:45:49;13.13;;;9.50;;
21010;SDS011;10663;42.714;23.274;2022-10-16T03:47:21;14.38;;;9.90;;
21010;SDS011;10663;42.714;23.274;2022-10-16T03:48:53;12.77;;;9.37;;
21010;SDS011;10663;42.714;23.274;2022-10-16T03:50:24;11.60;;;9.23;;
21010;SDS011;10663;42.714;23.274;2022-10-16T03:51:55;11.87;;;9.30;;
21010;SDS011;10663;42.714;23.274;2022-10-16T03:53:26;11.97;;;9.40;;
21010;SDS011;10663;42.714;23.274;2022-10-16T03:54:57;12.30;;;9.50;;
21010;SDS011;10663;42.714;23.274;2022-10-16T03:56:28;14.07;;;9.52;;
21010;SDS011;10663;42.714;23.274;2022-10-16T03:57:58;15.02;;;9.52;;
21010;SDS011;10663;42.714;23.274;2022-10-16T03:59:29;15.77;;;9.98;;
21010;SDS011;10663;42.714;23.274;2022-10-16T04:01:00;12.52;;;9.68;;
21010;SDS011;10663;42.714;23.274;2022-10-16T04:02:31;11.50;;;9.40;;
21010;SDS011;10663;42.714;23.274;2022-10-16T04:04:02;13.65;;;9.90;;
21010;SDS011;10663;42.714;23.274;2022-10-16T04:05:33;13.02;;;10.07;;
21010;SDS011;10663;42.714;23.274;2022-10-16T04:07:03;14.02;;;10.63;;
21010;SDS011;10663;42.714;23.274;2022-10-16T04:08:35;15.68;;;11.10;;
21010;SDS011;10663;42.714;23.274;2022-10-16T04:10:07;13.60;;;10.25;;
21010;SDS011;10663;42.714;23.274;2022-10-16T04:11:38;14.00;;;10.77;;
21010;SDS011;10663;42.714;23.274;2022-10-16T04:13:09;16.75;;;10.43;;
21010;SDS011;10663;42.714;23.274;2022-10-16T04:14:40;14.45;;;11.20;;
21010;SDS011;10663;42.714;23.274;2022-10-16T04:16:11;14.02;;;11.13;;
21010;SDS011;10663;42.714;23.274;2022-10-16T04:17:42;13.20;;;10.90;;
21010;SDS011;10663;42.714;23.274;2022-10-16T04:19:13;12.95;;;10.95;;
21010;SDS011;10663;42.714;23.274;2022-10-16T04:20:44;15.98;;;12.20;;
21010;SDS011;10663;42.714;23.274;2022-10-16T04:22:14;15.95;;;11.80;;
21010;SDS011;10663;42.714;23.274;2022-10-16T04:23:45;14.65;;;11.80;;
21010;SDS011;10663;42.714;23.274;2022-10-16T04:25:16;15.30;;;11.77;;
21010;SDS011;10663;42.714;23.274;2022-10-16T04:26:47;17.13;;;12.60;;
21010;SDS011;10663;42.714;23.274;2022-10-16T04:28:18;15.60;;;12.43;;
21010;SDS011;10663;42.714;23.274;2022-10-16T04:29:49;15.55;;;12.10;;
21010;SDS011;10663;42.714;23.274;2022-10-16T04:31:20;14.50;;;11.52;;
21010;SDS011;10663;42.714;23.274;2022-10-16T04:32:51;17.17;;;11.95;;
21010;SDS011;10663;42.714;23.274;2022-10-16T04:34:22;15.05;;;10.65;;
21010;SDS011;10663;42.714;23.274;2022-10-16T04:35:57;14.27;;;10.87;;
21010;SDS011;10663;42.714;23.274;2022-10-16T04:37:28;14.13;;;10.93;;
21010;SDS011;10663;42.714;23.274;2022-10-16T04:38:59;15.37;;;11.20;;
21010;SDS011;10663;42.714;23.274;2022-10-16T04:40:30;14.93;;;10.90;;
21010;SDS011;10663;42.714;23.274;2022-10-16T04:42:06;13.57;;;10.85;;
21010;SDS011;10663;42.714;23.274;2022-10-16T04:43:37;14.32;;;11.50;;
21010;SDS011;10663;42.714;23.274;2022-10-16T04:45:08;13.60;;;10.27;;
21010;SDS011;10663;42.714;23.274;2022-10-16T04:46:39;13.48;;;10.15;;
21010;SDS011;10663;42.714;23.274;2022-10-16T04:48:10;14.65;;;11.70;;
21010;SDS011;10663;42.714;23.274;2022-10-16T04:49:41;12.63;;;10.10;;
21010;SDS011;10663;42.714;23.274;2022-10-16T04:51:12;13.88;;;11.43;;
21010;SDS011;10663;42.714;23.274;2022-10-16T04:52:43;13.95;;;10.88;;
21010;SDS011;10663;42.714;23.274;2022-10-16T04:54:14;16.13;;;11.77;;
21010;SDS011;10663;42.714;23.274;2022-10-16T04:55:45;16.85;;;11.05;;
21010;SDS011;10663;42.714;23.274;2022-10-16T04:57:16;16.98;;;10.88;;
21010;SDS011;10663;42.714;23.274;2022-10-16T04:58:47;14.50;;;11.18;;
21010;SDS011;10663;42.714;23.274;2022-10-16T05:00:18;13.80;;;10.32;;
21010;SDS011;10663;42.714;23.274;2022-10-16T05:01:49;15.02;;;10.90;;
21010;SDS011;10663;42.714;23.274;2022-10-16T05:03:20;14.38;;;10.60;;
21010;SDS011;10663;42.714;23.274;2022-10-16T05:04:51;15.80;;;12.35;;
21010;SDS011;10663;42.714;23.274;2022-10-16T05:06:22;17.52;;;13.32;;
21010;SDS011;10663;42.714;23.274;2022-10-16T05:07:53;19.60;;;14.90;;
21010;SDS011;10663;42.714;23.274;2022-10-16T05:09:24;18.02;;;12.50;;
21010;SDS011;10663;42.714;23.274;2022-10-16T05:10:55;16.85;;;12.40;;
21010;SDS011;10663;42.714;23.274;2022-10-16T05:12:26;15.40;;;12.18;;
21010;SDS011;10663;42.714;23.274;2022-10-16T05:13:57;14.40;;;11.68;;
21010;SDS011;10663;42.714;23.274;2022-10-16T05:15:28;22.60;;;14.85;;
21010;SDS011;10663;42.714;23.274;2022-10-16T05:16:59;22.23;;;16.17;;
21010;SDS011;10663;42.714;23.274;2022-10-16T05:18:30;19.15;;;14.27;;
21010;SDS011;10663;42.714;23.274;2022-10-16T05:20:01;19.45;;;14.77;;
21010;SDS011;10663;42.714;23.274;2022-10-16T05:21:33;25.42;;;16.95;;
21010;SDS011;10663;42.714;23.274;2022-10-16T05:23:04;21.38;;;14.52;;
21010;SDS011;10663;42.714;23.274;2022-10-16T05:24:35;18.30;;;14.07;;
21010;SDS011;10663;42.714;23.274;2022-10-16T05:26:06;16.55;;;13.50;;
21010;SDS011;10663;42.714;23.274;2022-10-16T05:27:37;18.13;;;13.50;;
21010;SDS011;10663;42.714;23.274;2022-10-16T05:29:08;20.45;;;13.52;;
21010;SDS011;10663;42.714;23.274;2022-10-16T05:30:39;17.50;;;11.98;;
21010;SDS011;10663;42.714;23.274;2022-10-16T05:32:10;15.82;;;11.82;;
21010;SDS011;10663;42.714;23.274;2022-10-16T05:33:41;17.08;;;12.55;;
21010;SDS011;10663;42.714;23.274;2022-10-16T05:35:15;16.58;;;12.50;;
21010;SDS011;10663;42.714;23.274;2022-10-16T05:36:47;15.90;;;12.60;;
21010;SDS011;10663;42.714;23.274;2022-10-16T05:38:17;15.32;;;12.70;;
21010;SDS011;10663;42.714;23.274;2022-10-16T05:39:48;16.20;;;12.40;;
21010;SDS011;10663;42.714;23.274;2022-10-16T05:41:19;17.97;;;12.50;;
21010;SDS011;10663;42.714;23.274;2022-10-16T05:42:54;18.42;;;12.88;;
21010;SDS011;10663;42.714;23.274;2022-10-16T05:44:25;18.33;;;12.55;;
21010;SDS011;10663;42.714;23.274;2022-10-16T05:45:57;15.30;;;11.47;;
21010;SDS011;10663;42.714;23.274;2022-10-16T05:47:30;14.20;;;10.73;;
21010;SDS011;10663;42.714;23.274;2022-10-16T05:49:01;13.07;;;10.95;;
21010;SDS011;10663;42.714;23.274;2022-10-16T05:50:32;14.88;;;11.07;;
21010;SDS011;10663;42.714;23.274;2022-10-16T05:52:02;17.75;;;11.20;;
21010;SDS011;10663;42.714;23.274;2022-10-16T05:53:34;13.95;;;10.00;;
21010;SDS011;10663;42.714;23.274;2022-10-16T05:55:07;15.25;;;11.30;;
21010;SDS011;10663;42.714;23.274;2022-10-16T05:56:38;13.90;;;10.83;;
21010;SDS011;10663;42.714;23.274;2022-10-16T05:58:11;14.53;;;11.30;;
21010;SDS011;10663;42.714;23.274;2022-10-16T05:59:42;15.70;;;11.02;;
21010;SDS011;10663;42.714;23.274;2022-10-16T06:01:14;17.02;;;11.55;;
21010;SDS011;10663;42.714;23.274;2022-10-16T06:02:47;14.88;;;11.30;;
21010;SDS011;10663;42.714;23.274;2022-10-16T06:04:18;14.68;;;10.88;;
21010;SDS011;10663;42.714;23.274;2022-10-16T06:05:49;18.17;;;13.20;;
21010;SDS011;10663;42.714;23.274;2022-10-16T06:07:20;15.85;;;11.90;;
21010;SDS011;10663;42.714;23.274;2022-10-16T06:08:53;17.23;;;12.77;;
21010;SDS011;10663;42.714;23.274;2022-10-16T06:10:25;19.85;;;11.65;;
21010;SDS011;10663;42.714;23.274;2022-10-16T06:11:56;15.75;;;11.68;;
21010;SDS011;10663;42.714;23.274;2022-10-16T06:13:27;13.95;;;11.50;;
21010;SDS011;10663;42.714;23.274;2022-10-16T06:14:57;15.63;;;11.65;;
21010;SDS011;10663;42.714;23.274;2022-10-16T06:16:28;16.63;;;12.50;;
21010;SDS011;10663;42.714;23.274;2022-10-16T06:18:00;16.55;;;11.95;;
21010;SDS011;10663;42.714;23.274;2022-10-16T06:19:30;19.73;;;13.83;;
21010;SDS011;10663;42.714;23.274;2022-10-16T06:21:07;15.90;;;12.07;;
21010;SDS011;10663;42.714;23.274;2022-10-16T06:22:39;16.90;;;12.13;;
21010;SDS011;10663;42.714;23.274;2022-10-16T06:24:10;17.25;;;11.25;;
21010;SDS011;10663;42.714;23.274;2022-10-16T06:25:40;16.40;;;11.80;;
21010;SDS011;10663;42.714;23.274;2022-10-16T06:27:11;20.13;;;14.98;;
21010;SDS011;10663;42.714;23.274;2022-10-16T06:28:42;19.07;;;13.90;;
21010;SDS011;10663;42.714;23.274;2022-10-16T06:30:13;14.95;;;11.70;;
21010;SDS011;10663;42.714;23.274;2022-10-16T06:31:44;17.45;;;12.23;;
21010;SDS011;10663;42.714;23.274;2022-10-16T06:33:15;17.92;;;12.25;;
21010;SDS011;10663;42.714;23.274;2022-10-16T06:34:46;17.30;;;12.25;;
21010;SDS011;10663;42.714;23.274;2022-10-16T06:36:17;17.05;;;12.52;;
21010;SDS011;10663;42.714;23.274;2022-10-16T06:37:48;16.85;;;12.50;;
21010;SDS011;10663;42.714;23.274;2022-10-16T06:39:19;15.18;;;11.88;;
21010;SDS011;10663;42.714;23.274;2022-10-16T06:40:49;14.80;;;12.33;;
21010;SDS011;10663;42.714;23.274;2022-10-16T06:42:20;17.00;;;12.50;;
21010;SDS011;10663;42.714;23.274;2022-10-16T06:43:51;17.93;;;13.03;;
21010;SDS011;10663;42.714;23.274;2022-10-16T06:45:22;17.30;;;12.97;;
21010;SDS011;10663;42.714;23.274;2022-10-16T06:46:53;19.67;;;13.45;;
21010;SDS011;10663;42.714;23.274;2022-10-16T06:48:24;18.90;;;14.07;;
21010;SDS011;10663;42.714;23.274;2022-10-16T06:49:55;18.30;;;13.90;;
21010;SDS011;10663;42.714;23.274;2022-10-16T06:51:26;20.00;;;14.40;;
21010;SDS011;10663;42.714;23.274;2022-10-16T06:52:57;19.83;;;14.02;;
21010;SDS011;10663;42.714;23.274;2022-10-16T06:54:29;21.20;;;14.27;;
21010;SDS011;10663;42.714;23.274;2022-10-16T06:56:07;20.17;;;13.37;;
21010;SDS011;10663;42.714;23.274;2022-10-16T06:57:43;18.05;;;13.13;;
21010;SDS011;10663;42.714;23.274;2022-10-16T06:59:14;16.63;;;12.20;;
21010;SDS011;10663;42.714;23.274;2022-10-16T07:00:45;16.77;;;12.65;;
21010;SDS011;10663;42.714;23.274;2022-10-16T07:02:16;17.17;;;12.60;;
21010;SDS011;10663;42.714;23.274;2022-10-16T07:03:47;18.02;;;13.00;;
21010;SDS011;10663;42.714;23.274;2022-10-16T07:05:18;19.08;;;14.07;;
21010;SDS011;10663;42.714;23.274;2022-10-16T07:06:49;20.60;;;14.73;;
21010;SDS011;10663;42.714;23.274;2022-10-16T07:08:21;18.27;;;14.38;;
21010;SDS011;10663;42.714;23.274;2022-10-16T07:09:52;19.05;;;13.70;;
21010;SDS011;10663;42.714;23.274;2022-10-16T07:11:23;18.60;;;13.67;;
21010;SDS011;10663;42.714;23.274;2022-10-16T07:12:55;19.90;;;15.02;;
21010;SDS011;10663;42.714;23.274;2022-10-16T07:14:26;17.70;;;13.15;;
21010;SDS011;10663;42.714;23.274;2022-10-16T07:15:57;15.52;;;11.63;;
21010;SDS011;10663;42.714;23.274;2022-10-16T07:17:27;16.45;;;12.57;;
21010;SDS011;10663;42.714;23.274;2022-10-16T07:19:00;18.02;;;12.90;;
21010;SDS011;10663;42.714;23.274;2022-10-16T07:20:32;18.17;;;13.30;;
21010;SDS011;10663;42.714;23.274;2022-10-16T07:22:03;16.08;;;11.57;;
21010;SDS011;10663;42.714;23.274;2022-10-16T07:23:33;16.25;;;12.40;;
21010;SDS011;10663;42.714;23.274;2022-10-16T07:25:04;15.48;;;11.85;;
21010;SDS011;10663;42.714;23.274;2022-10-16T07:26:36;16.85;;;12.18;;
21010;SDS011;10663;42.714;23.274;2022-10-16T07:28:09;14.18;;;11.63;;
21010;SDS011;10663;42.714;23.274;2022-10-16T07:29:40;15.25;;;11.85;;
21010;SDS011;10663;42.714;23.274;2022-10-16T07:31:11;16.67;;;11.05;;
21010;SDS011;10663;42.714;23.274;2022-10-16T07:32:44;16.27;;;11.25;;
21010;SDS011;10663;42.714;23.274;2022-10-16T07:34:15;12.98;;;10.93;;
21010;SDS011;10663;42.714;23.274;2022-10-16T07:35:51;14.30;;;11.07;;
21010;SDS011;10663;42.714;23.274;2022-10-16T07:37:23;15.52;;;10.98;;
21010;SDS011;10663;42.714;23.274;2022-10-16T07:38:54;14.55;;;11.65;;
21010;SDS011;10663;42.714;23.274;2022-10-16T07:40:25;13.45;;;10.68;;
21010;SDS011;10663;42.714;23.274;2022-10-16T07:41:57;13.57;;;10.98;;
21010;SDS011;10663;42.714;23.274;2022-10-16T07:43:29;13.35;;;10.23;;
21010;SDS011;10663;42.714;23.274;2022-10-16T07:45:00;13.70;;;10.63;;
21010;SDS011;10663;42.714;23.274;2022-10-16T07:46:31;15.40;;;11.47;;
21010;SDS011;10663;42.714;23.274;2022-10-16T07:48:04;13.55;;;10.98;;
21010;SDS011;10663;42.714;23.274;2022-10-16T07:49:35;13.88;;;10.55;;
21010;SDS011;10663;42.714;23.274;2022-10-16T07:51:06;15.60;;;10.85;;
21010;SDS011;10663;42.714;23.274;2022-10-16T07:52:37;14.73;;;10.07;;
21010;SDS011;10663;42.714;23.274;2022-10-16T07:54:09;14.13;;;10.00;;
21010;SDS011;10663;42.714;23.274;2022-10-16T07:55:40;12.63;;;10.17;;
21010;SDS011;10663;42.714;23.274;2022-10-16T07:57:11;13.88;;;9.85;;
21010;SDS011;10663;42.714;23.274;2022-10-16T07:58:42;12.47;;;9.40;;
21010;SDS011;10663;42.714;23.274;2022-10-16T08:00:13;15.07;;;10.60;;
21010;SDS011;10663;42.714;23.274;2022-10-16T08:01:44;14.07;;;10.30;;
21010;SDS011;10663;42.714;23.274;2022-10-16T08:03:15;14.32;;;10.80;;
21010;SDS011;10663;42.714;23.274;2022-10-16T08:04:46;14.00;;;11.07;;
21010;SDS011;10663;42.714;23.274;2022-10-16T08:06:18;14.73;;;10.35;;
21010;SDS011;10663;42.714;23.274;2022-10-16T08:07:50;13.55;;;10.73;;
21010;SDS011;10663;42.714;23.274;2022-10-16T08:09:21;14.02;;;10.27;;
21010;SDS011;10663;42.714;23.274;2022-10-16T08:10:52;12.73;;;10.48;;
21010;SDS011;10663;42.714;23.274;2022-10-16T08:12:23;15.50;;;10.87;;
21010;SDS011;10663;42.714;23.274;2022-10-16T08:13:54;14.00;;;10.50;;
21010;SDS011;10663;42.714;23.274;2022-10-16T08:15:24;14.73;;;10.70;;
21010;SDS011;10663;42.714;23.274;2022-10-16T08:16:55;13.13;;;10.23;;
21010;SDS011;10663;42.714;23.274;2022-10-16T08:18:26;14.52;;;11.00;;
21010;SDS011;10663;42.714;23.274;2022-10-16T08:19:58;15.38;;;11.20;;
21010;SDS011;10663;42.714;23.274;2022-10-16T08:21:28;15.98;;;11.65;;
21010;SDS011;10663;42.714;23.274;2022-10-16T08:23:00;15.88;;;11.73;;
21010;SDS011;10663;42.714;23.274;2022-10-16T08:24:31;14.60;;;11.77;;
21010;SDS011;10663;42.714;23.274;2022-10-16T08:26:04;12.77;;;10.77;;
21010;SDS011;10663;42.714;23.274;2022-10-16T08:27:36;14.05;;;10.90;;
21010;SDS011;10663;42.714;23.274;2022-10-16T08:29:07;14.55;;;11.02;;
21010;SDS011;10663;42.714;23.274;2022-10-16T08:30:38;14.75;;;10.88;;
21010;SDS011;10663;42.714;23.274;2022-10-16T08:32:09;13.95;;;10.00;;
21010;SDS011;10663;42.714;23.274;2022-10-16T08:33:41;12.68;;;10.00;;
21010;SDS011;10663;42.714;23.274;2022-10-16T08:35:14;12.80;;;10.25;;
21010;SDS011;10663;42.714;23.274;2022-10-16T08:36:46;12.02;;;9.25;;
21010;SDS011;10663;42.714;23.274;2022-10-16T08:38:17;13.53;;;9.63;;
21010;SDS011;10663;42.714;23.274;2022-10-16T08:39:47;15.40;;;10.27;;
21010;SDS011;10663;42.714;23.274;2022-10-16T08:47:02;13.57;;;9.00;;
21010;SDS011;10663;42.714;23.274;2022-10-16T08:48:57;11.33;;;8.37;;
21010;SDS011;10663;42.714;23.274;2022-10-16T08:50:30;10.18;;;8.18;;
21010;SDS011;10663;42.714;23.274;2022-10-16T08:52:03;11.73;;;7.63;;
21010;SDS011;10663;42.714;23.274;2022-10-16T08:53:36;9.40;;;8.40;;
21010;SDS011;10663;42.714;23.274;2022-10-16T08:55:30;10.48;;;8.15;;
21010;SDS011;10663;42.714;23.274;2022-10-16T08:57:19;10.40;;;7.45;;
21010;SDS011;10663;42.714;23.274;2022-10-16T08:58:52;9.48;;;7.32;;
21010;SDS011;10663;42.714;23.274;2022-10-16T09:00:23;10.45;;;7.53;;
21010;SDS011;10663;42.714;23.274;2022-10-16T09:01:56;8.40;;;6.57;;
21010;SDS011;10663;42.714;23.274;2022-10-16T09:05:18;9.43;;;7.07;;
21010;SDS011;10663;42.714;23.274;2022-10-16T09:07:02;8.63;;;6.30;;
21010;SDS011;10663;42.714;23.274;2022-10-16T09:08:44;6.22;;;5.20;;
21010;SDS011;10663;42.714;23.274;2022-10-16T09:18:05;6.25;;;4.47;;
21010;SDS011;10663;42.714;23.274;2022-10-16T09:19:46;5.47;;;4.22;;
21010;SDS011;10663;42.714;23.274;2022-10-16T09:21:25;6.13;;;4.78;;
21010;SDS011;10663;42.714;23.274;2022-10-16T09:24:33;7.75;;;5.15;;
21010;SDS011;10663;42.714;23.274;2022-10-16T09:26:05;5.38;;;4.70;;
21010;SDS011;10663;42.714;23.274;2022-10-16T09:27:47;6.63;;;5.25;;
21010;SDS011;10663;42.714;23.274;2022-10-16T09:29:24;5.57;;;4.65;;
21010;SDS011;10663;42.714;23.274;2022-10-16T09:30:55;7.57;;;5.10;;